sensor_id;sensor_type;location;lat;lon;timestamp;P1;durP1;ratioP1;P2;durP2;ratioP2
38611;SDS011;24368;52.156;20.788;2023-07-24T00:03:34;4.80;;;4.20;;
38611;SDS011;24368;52.156;20.788;2023-07-24T00:08:36;4.30;;;3.70;;
38611;SDS011;24368;52.156;20.788;2023-07-24T00:13:38;7.60;;;6.40;;
38611;SDS011;24368;52.156;20.788;2023-07-24T00:18:40;4.90;;;4.40;;
38611;SDS011;24368;52.156;20.788;2023-07-24T00:23:43;4.80;;;4.40;;
38611;SDS011;24368;52.156;20.788;2023-07-24T00:28:44;5.10;;;4.30;;
38611;SDS011;24368;52.156;20.788;2023-07-24T00:33:46;6.20;;;5.50;;
38611;SDS011;24368;52.156;20.788;2023-07-24T00:38:48;4.60;;;4.00;;
38611;SDS011;24368;52.156;20.788;2023-07-24T00:43:49;4.70;;;4.20;;
38611;SDS011;24368;52.156;20.788;2023-07-24T00:48:51;4.50;;;4.10;;
38611;SDS011;24368;52.156;20.788;2023-07-24T00:53:56;6.00;;;4.70;;
38611;SDS011;24368;52.156;20.788;2023-07-24T00:58:59;4.10;;;3.70;;
38611;SDS011;24368;52.156;20.788;2023-07-24T01:04:01;5.10;;;3.90;;
38611;SDS011;24368;52.156;20.788;2023-07-24T01:09:06;5.70;;;3.60;;
38611;SDS011;24368;52.156;20.788;2023-07-24T01:14:09;6.70;;;4.10;;
38611;SDS011;24368;52.156;20.788;2023-07-24T01:29:48;4.80;;;3.50;;
38611;SDS011;24368;52.156;20.788;2023-07-24T01:34:50;4.10;;;3.70;;
38611;SDS011;24368;52.156;20.788;2023-07-24T01:39:53;5.00;;;3.60;;
38611;SDS011;24368;52.156;20.788;2023-07-24T01:44:57;5.10;;;3.80;;
38611;SDS011;24368;52.156;20.788;2023-07-24T01:49:59;4.20;;;3.50;;
38611;SDS011;24368;52.156;20.788;2023-07-24T01:55:00;3.60;;;3.10;;
38611;SDS011;24368;52.156;20.788;2023-07-24T02:00:03;3.10;;;2.90;;
38611;SDS011;24368;52.156;20.788;2023-07-24T02:05:05;3.40;;;2.90;;
38611;SDS011;24368;52.156;20.788;2023-07-24T02:10:08;3.80;;;3.00;;
38611;SDS011;24368;52.156;20.788;2023-07-24T02:15:10;3.30;;;3.00;;
38611;SDS011;24368;52.156;20.788;2023-07-24T02:20:12;4.70;;;3.00;;
38611;SDS011;24368;52.156;20.788;2023-07-24T02:25:14;3.00;;;2.60;;
38611;SDS011;24368;52.156;20.788;2023-07-24T02:30:19;4.20;;;3.00;;
38611;SDS011;24368;52.156;20.788;2023-07-24T02:35:21;3.50;;;3.20;;
38611;SDS011;24368;52.156;20.788;2023-07-24T02:40:22;3.40;;;2.90;;
38611;SDS011;24368;52.156;20.788;2023-07-24T02:45:24;3.00;;;2.60;;
38611;SDS011;24368;52.156;20.788;2023-07-24T02:50:26;4.20;;;2.80;;
38611;SDS011;24368;52.156;20.788;2023-07-24T02:55:28;4.00;;;2.60;;
38611;SDS011;24368;52.156;20.788;2023-07-24T03:00:31;2.80;;;2.60;;
38611;SDS011;24368;52.156;20.788;2023-07-24T03:05:36;4.00;;;3.00;;
38611;SDS011;24368;52.156;20.788;2023-07-24T03:10:41;3.20;;;2.50;;
38611;SDS011;24368;52.156;20.788;2023-07-24T03:15:50;3.10;;;2.80;;
38611;SDS011;24368;52.156;20.788;2023-07-24T03:20:54;2.50;;;2.30;;
38611;SDS011;24368;52.156;20.788;2023-07-24T03:25:58;3.70;;;2.40;;
38611;SDS011;24368;52.156;20.788;2023-07-24T03:31:00;3.70;;;2.70;;
38611;SDS011;24368;52.156;20.788;2023-07-24T03:36:01;2.70;;;2.50;;
38611;SDS011;24368;52.156;20.788;2023-07-24T03:41:03;3.10;;;2.80;;
38611;SDS011;24368;52.156;20.788;2023-07-24T03:46:05;5.20;;;2.70;;
38611;SDS011;24368;52.156;20.788;2023-07-24T03:51:07;2.80;;;2.60;;
38611;SDS011;24368;52.156;20.788;2023-07-24T03:56:09;3.80;;;2.50;;
38611;SDS011;24368;52.156;20.788;2023-07-24T04:01:11;2.60;;;2.40;;
38611;SDS011;24368;52.156;20.788;2023-07-24T04:06:13;4.80;;;2.50;;
38611;SDS011;24368;52.156;20.788;2023-07-24T04:11:15;4.00;;;2.40;;
38611;SDS011;24368;52.156;20.788;2023-07-24T04:16:17;3.90;;;2.40;;
38611;SDS011;24368;52.156;20.788;2023-07-24T04:21:19;2.50;;;2.30;;
38611;SDS011;24368;52.156;20.788;2023-07-24T04:26:20;3.10;;;2.80;;
38611;SDS011;24368;52.156;20.788;2023-07-24T04:31:22;4.10;;;2.40;;
38611;SDS011;24368;52.156;20.788;2023-07-24T04:36:24;3.00;;;2.30;;
38611;SDS011;24368;52.156;20.788;2023-07-24T04:41:25;3.60;;;2.50;;
38611;SDS011;24368;52.156;20.788;2023-07-24T04:46:27;2.50;;;2.30;;
38611;SDS011;24368;52.156;20.788;2023-07-24T04:51:29;2.60;;;2.40;;
38611;SDS011;24368;52.156;20.788;2023-07-24T04:56:31;2.60;;;2.40;;
38611;SDS011;24368;52.156;20.788;2023-07-24T05:01:32;4.10;;;2.90;;
38611;SDS011;24368;52.156;20.788;2023-07-24T05:06:34;3.10;;;2.50;;
38611;SDS011;24368;52.156;20.788;2023-07-24T05:11:36;4.60;;;2.30;;
38611;SDS011;24368;52.156;20.788;2023-07-24T05:16:38;4.00;;;2.50;;
38611;SDS011;24368;52.156;20.788;2023-07-24T05:21:40;4.40;;;2.50;;
38611;SDS011;24368;52.156;20.788;2023-07-24T05:26:42;2.80;;;2.50;;
38611;SDS011;24368;52.156;20.788;2023-07-24T05:31:44;4.20;;;3.00;;
38611;SDS011;24368;52.156;20.788;2023-07-24T05:36:45;3.00;;;2.70;;
38611;SDS011;24368;52.156;20.788;2023-07-24T05:41:47;2.90;;;2.70;;
38611;SDS011;24368;52.156;20.788;2023-07-24T05:46:53;2.90;;;2.60;;
38611;SDS011;24368;52.156;20.788;2023-07-24T05:51:54;3.20;;;2.70;;
38611;SDS011;24368;52.156;20.788;2023-07-24T05:56:57;3.60;;;3.00;;
38611;SDS011;24368;52.156;20.788;2023-07-24T06:01:59;2.80;;;2.50;;
38611;SDS011;24368;52.156;20.788;2023-07-24T06:07:01;2.70;;;2.40;;
38611;SDS011;24368;52.156;20.788;2023-07-24T06:12:03;2.80;;;2.30;;
38611;SDS011;24368;52.156;20.788;2023-07-24T06:17:05;2.30;;;2.10;;
38611;SDS011;24368;52.156;20.788;2023-07-24T06:22:07;3.10;;;1.90;;
38611;SDS011;24368;52.156;20.788;2023-07-24T06:27:09;3.30;;;2.40;;
38611;SDS011;24368;52.156;20.788;2023-07-24T06:32:10;2.60;;;2.20;;
38611;SDS011;24368;52.156;20.788;2023-07-24T06:37:12;2.30;;;2.10;;
38611;SDS011;24368;52.156;20.788;2023-07-24T06:42:14;2.50;;;2.30;;
38611;SDS011;24368;52.156;20.788;2023-07-24T06:47:16;4.50;;;2.20;;
38611;SDS011;24368;52.156;20.788;2023-07-24T06:52:17;1.90;;;1.70;;
38611;SDS011;24368;52.156;20.788;2023-07-24T06:57:19;2.40;;;2.10;;
38611;SDS011;24368;52.156;20.788;2023-07-24T07:02:21;2.40;;;2.20;;
38611;SDS011;24368;52.156;20.788;2023-07-24T07:07:22;2.40;;;2.20;;
38611;SDS011;24368;52.156;20.788;2023-07-24T07:12:24;2.30;;;2.10;;
38611;SDS011;24368;52.156;20.788;2023-07-24T07:17:26;2.80;;;1.80;;
38611;SDS011;24368;52.156;20.788;2023-07-24T07:22:28;4.00;;;2.70;;
38611;SDS011;24368;52.156;20.788;2023-07-24T07:27:29;2.10;;;1.90;;
38611;SDS011;24368;52.156;20.788;2023-07-24T07:32:31;3.20;;;2.40;;
38611;SDS011;24368;52.156;20.788;2023-07-24T07:37:33;10.00;;;2.40;;
38611;SDS011;24368;52.156;20.788;2023-07-24T07:42:35;2.50;;;2.30;;
38611;SDS011;24368;52.156;20.788;2023-07-24T07:47:36;2.80;;;2.40;;
38611;SDS011;24368;52.156;20.788;2023-07-24T07:52:39;1.80;;;1.70;;
38611;SDS011;24368;52.156;20.788;2023-07-24T07:57:40;1.90;;;1.70;;
38611;SDS011;24368;52.156;20.788;2023-07-24T08:02:42;3.80;;;2.90;;
38611;SDS011;24368;52.156;20.788;2023-07-24T08:07:44;2.90;;;1.80;;
38611;SDS011;24368;52.156;20.788;2023-07-24T08:12:46;6.50;;;2.30;;
38611;SDS011;24368;52.156;20.788;2023-07-24T08:17:47;2.10;;;1.80;;
38611;SDS011;24368;52.156;20.788;2023-07-24T08:22:49;3.00;;;1.60;;
38611;SDS011;24368;52.156;20.788;2023-07-24T08:27:51;4.40;;;3.40;;
38611;SDS011;24368;52.156;20.788;2023-07-24T08:32:53;2.00;;;1.80;;
38611;SDS011;24368;52.156;20.788;2023-07-24T08:37:55;3.00;;;2.10;;
38611;SDS011;24368;52.156;20.788;2023-07-24T08:42:57;4.30;;;2.00;;
38611;SDS011;24368;52.156;20.788;2023-07-24T08:47:59;2.80;;;1.70;;
38611;SDS011;24368;52.156;20.788;2023-07-24T08:53:01;4.20;;;1.70;;
38611;SDS011;24368;52.156;20.788;2023-07-24T08:58:03;2.40;;;1.60;;
38611;SDS011;24368;52.156;20.788;2023-07-24T09:03:08;2.70;;;2.10;;
38611;SDS011;24368;52.156;20.788;2023-07-24T09:08:10;1.80;;;1.70;;
38611;SDS011;24368;52.156;20.788;2023-07-24T09:13:12;2.10;;;1.90;;
38611;SDS011;24368;52.156;20.788;2023-07-24T09:18:13;2.70;;;2.00;;
38611;SDS011;24368;52.156;20.788;2023-07-24T09:23:25;2.50;;;1.70;;
38611;SDS011;24368;52.156;20.788;2023-07-24T09:28:29;1.90;;;1.80;;
38611;SDS011;24368;52.156;20.788;2023-07-24T09:33:36;2.90;;;1.60;;
38611;SDS011;24368;52.156;20.788;2023-07-24T09:38:40;1.80;;;1.70;;
38611;SDS011;24368;52.156;20.788;2023-07-24T09:43:42;2.80;;;2.00;;
38611;SDS011;24368;52.156;20.788;2023-07-24T09:48:44;2.70;;;1.80;;
38611;SDS011;24368;52.156;20.788;2023-07-24T09:53:47;2.10;;;1.90;;
38611;SDS011;24368;52.156;20.788;2023-07-24T09:58:53;2.10;;;1.90;;
38611;SDS011;24368;52.156;20.788;2023-07-24T10:03:56;2.70;;;2.30;;
38611;SDS011;24368;52.156;20.788;2023-07-24T10:09:00;2.60;;;2.00;;
38611;SDS011;24368;52.156;20.788;2023-07-24T10:14:03;2.40;;;2.20;;
38611;SDS011;24368;52.156;20.788;2023-07-24T10:19:12;7.10;;;3.10;;
38611;SDS011;24368;52.156;20.788;2023-07-24T10:24:17;3.40;;;3.00;;
38611;SDS011;24368;52.156;20.788;2023-07-24T10:29:19;2.70;;;2.10;;
38611;SDS011;24368;52.156;20.788;2023-07-24T10:34:21;2.30;;;2.10;;
38611;SDS011;24368;52.156;20.788;2023-07-24T10:39:23;7.50;;;3.40;;
38611;SDS011;24368;52.156;20.788;2023-07-24T10:44:31;1.90;;;1.80;;
38611;SDS011;24368;52.156;20.788;2023-07-24T10:49:33;2.90;;;2.10;;
38611;SDS011;24368;52.156;20.788;2023-07-24T10:54:35;3.70;;;2.70;;
38611;SDS011;24368;52.156;20.788;2023-07-24T10:59:38;2.70;;;2.40;;
38611;SDS011;24368;52.156;20.788;2023-07-24T11:04:41;2.90;;;2.20;;
38611;SDS011;24368;52.156;20.788;2023-07-24T11:09:43;3.80;;;3.00;;
38611;SDS011;24368;52.156;20.788;2023-07-24T11:20:05;3.70;;;3.40;;
38611;SDS011;24368;52.156;20.788;2023-07-24T11:25:08;2.60;;;2.40;;
38611;SDS011;24368;52.156;20.788;2023-07-24T11:30:18;3.00;;;2.80;;
38611;SDS011;24368;52.156;20.788;2023-07-24T11:35:22;3.40;;;2.90;;
38611;SDS011;24368;52.156;20.788;2023-07-24T11:40:34;3.40;;;3.10;;
38611;SDS011;24368;52.156;20.788;2023-07-24T11:45:43;4.60;;;3.10;;
38611;SDS011;24368;52.156;20.788;2023-07-24T11:50:47;3.80;;;2.80;;
38611;SDS011;24368;52.156;20.788;2023-07-24T12:00:54;4.40;;;2.80;;
38611;SDS011;24368;52.156;20.788;2023-07-24T12:05:57;3.70;;;2.70;;
38611;SDS011;24368;52.156;20.788;2023-07-24T12:10:59;3.30;;;3.00;;
38611;SDS011;24368;52.156;20.788;2023-07-24T12:16:01;2.90;;;2.70;;
38611;SDS011;24368;52.156;20.788;2023-07-24T12:21:04;2.80;;;2.60;;
38611;SDS011;24368;52.156;20.788;2023-07-24T12:26:06;3.40;;;2.50;;
38611;SDS011;24368;52.156;20.788;2023-07-24T12:31:08;2.40;;;2.20;;
38611;SDS011;24368;52.156;20.788;2023-07-24T12:36:11;3.70;;;3.40;;
38611;SDS011;24368;52.156;20.788;2023-07-24T12:41:13;3.20;;;2.90;;
38611;SDS011;24368;52.156;20.788;2023-07-24T12:46:15;5.00;;;2.90;;
38611;SDS011;24368;52.156;20.788;2023-07-24T12:51:16;5.00;;;4.50;;
38611;SDS011;24368;52.156;20.788;2023-07-24T12:56:18;4.20;;;3.30;;
38611;SDS011;24368;52.156;20.788;2023-07-24T13:01:20;6.80;;;3.20;;
38611;SDS011;24368;52.156;20.788;2023-07-24T13:06:22;4.50;;;3.60;;
38611;SDS011;24368;52.156;20.788;2023-07-24T13:11:25;3.50;;;3.10;;
38611;SDS011;24368;52.156;20.788;2023-07-24T13:16:27;4.30;;;3.70;;
38611;SDS011;24368;52.156;20.788;2023-07-24T13:21:29;4.50;;;3.10;;
38611;SDS011;24368;52.156;20.788;2023-07-24T13:26:31;3.60;;;2.70;;
38611;SDS011;24368;52.156;20.788;2023-07-24T13:31:32;3.70;;;2.80;;
38611;SDS011;24368;52.156;20.788;2023-07-24T13:36:34;5.00;;;3.30;;
38611;SDS011;24368;52.156;20.788;2023-07-24T13:41:36;4.00;;;3.10;;
38611;SDS011;24368;52.156;20.788;2023-07-24T13:46:39;5.00;;;4.10;;
38611;SDS011;24368;52.156;20.788;2023-07-24T13:51:41;3.30;;;2.70;;
38611;SDS011;24368;52.156;20.788;2023-07-24T13:56:43;2.90;;;2.70;;
38611;SDS011;24368;52.156;20.788;2023-07-24T14:01:44;3.30;;;2.60;;
38611;SDS011;24368;52.156;20.788;2023-07-24T14:06:46;5.90;;;4.80;;
38611;SDS011;24368;52.156;20.788;2023-07-24T14:11:48;3.10;;;2.80;;
38611;SDS011;24368;52.156;20.788;2023-07-24T14:16:50;4.20;;;3.70;;
38611;SDS011;24368;52.156;20.788;2023-07-24T14:21:52;4.20;;;3.50;;
38611;SDS011;24368;52.156;20.788;2023-07-24T14:26:54;4.10;;;3.50;;
38611;SDS011;24368;52.156;20.788;2023-07-24T14:31:55;3.10;;;2.80;;
38611;SDS011;24368;52.156;20.788;2023-07-24T14:36:57;3.60;;;3.30;;
38611;SDS011;24368;52.156;20.788;2023-07-24T14:41:59;4.90;;;4.20;;
38611;SDS011;24368;52.156;20.788;2023-07-24T14:47:01;4.10;;;3.60;;
38611;SDS011;24368;52.156;20.788;2023-07-24T14:52:03;4.40;;;3.40;;
38611;SDS011;24368;52.156;20.788;2023-07-24T14:57:05;5.70;;;3.90;;
38611;SDS011;24368;52.156;20.788;2023-07-24T15:02:07;5.30;;;4.40;;
38611;SDS011;24368;52.156;20.788;2023-07-24T15:07:09;4.00;;;3.60;;
38611;SDS011;24368;52.156;20.788;2023-07-24T15:12:11;3.70;;;3.40;;
38611;SDS011;24368;52.156;20.788;2023-07-24T15:17:12;7.10;;;3.60;;
38611;SDS011;24368;52.156;20.788;2023-07-24T15:22:16;4.20;;;3.90;;
38611;SDS011;24368;52.156;20.788;2023-07-24T15:27:17;4.00;;;3.70;;
38611;SDS011;24368;52.156;20.788;2023-07-24T15:32:19;4.30;;;3.90;;
38611;SDS011;24368;52.156;20.788;2023-07-24T15:37:21;7.00;;;6.30;;
38611;SDS011;24368;52.156;20.788;2023-07-24T15:42:23;7.60;;;4.60;;
38611;SDS011;24368;52.156;20.788;2023-07-24T15:47:25;4.70;;;4.20;;
38611;SDS011;24368;52.156;20.788;2023-07-24T15:52:27;4.40;;;4.00;;
38611;SDS011;24368;52.156;20.788;2023-07-24T15:57:29;4.20;;;3.30;;
38611;SDS011;24368;52.156;20.788;2023-07-24T16:02:31;4.30;;;3.90;;
38611;SDS011;24368;52.156;20.788;2023-07-24T16:07:33;4.20;;;3.80;;
38611;SDS011;24368;52.156;20.788;2023-07-24T16:12:36;5.40;;;3.70;;
38611;SDS011;24368;52.156;20.788;2023-07-24T16:17:38;6.40;;;4.60;;
38611;SDS011;24368;52.156;20.788;2023-07-24T16:22:40;5.00;;;4.40;;
38611;SDS011;24368;52.156;20.788;2023-07-24T16:27:42;7.20;;;6.50;;
38611;SDS011;24368;52.156;20.788;2023-07-24T16:32:44;5.40;;;4.10;;
38611;SDS011;24368;52.156;20.788;2023-07-24T16:37:46;5.60;;;5.10;;
38611;SDS011;24368;52.156;20.788;2023-07-24T16:42:48;4.00;;;3.60;;
38611;SDS011;24368;52.156;20.788;2023-07-24T16:47:50;7.70;;;4.90;;
38611;SDS011;24368;52.156;20.788;2023-07-24T16:52:52;5.30;;;4.40;;
38611;SDS011;24368;52.156;20.788;2023-07-24T16:57:54;7.50;;;4.40;;
38611;SDS011;24368;52.156;20.788;2023-07-24T17:02:55;5.80;;;4.30;;
38611;SDS011;24368;52.156;20.788;2023-07-24T17:07:57;4.90;;;4.30;;
38611;SDS011;24368;52.156;20.788;2023-07-24T17:12:59;5.40;;;4.20;;
38611;SDS011;24368;52.156;20.788;2023-07-24T17:18:01;5.80;;;4.70;;
38611;SDS011;24368;52.156;20.788;2023-07-24T17:23:02;4.80;;;4.30;;
38611;SDS011;24368;52.156;20.788;2023-07-24T17:28:05;5.10;;;4.60;;
38611;SDS011;24368;52.156;20.788;2023-07-24T17:33:07;5.20;;;4.70;;
38611;SDS011;24368;52.156;20.788;2023-07-24T17:38:08;6.50;;;5.20;;
38611;SDS011;24368;52.156;20.788;2023-07-24T17:43:10;5.60;;;5.10;;
38611;SDS011;24368;52.156;20.788;2023-07-24T17:48:12;5.10;;;4.60;;
38611;SDS011;24368;52.156;20.788;2023-07-24T17:53:14;4.90;;;4.30;;
38611;SDS011;24368;52.156;20.788;2023-07-24T17:58:16;6.40;;;4.80;;
38611;SDS011;24368;52.156;20.788;2023-07-24T18:03:17;5.40;;;4.90;;
38611;SDS011;24368;52.156;20.788;2023-07-24T18:08:19;5.50;;;5.00;;
38611;SDS011;24368;52.156;20.788;2023-07-24T18:13:21;7.60;;;5.20;;
38611;SDS011;24368;52.156;20.788;2023-07-24T18:18:24;6.20;;;4.70;;
38611;SDS011;24368;52.156;20.788;2023-07-24T18:23:26;6.10;;;4.90;;
38611;SDS011;24368;52.156;20.788;2023-07-24T18:28:28;5.80;;;5.20;;
38611;SDS011;24368;52.156;20.788;2023-07-24T18:33:30;6.70;;;5.90;;
38611;SDS011;24368;52.156;20.788;2023-07-24T18:38:31;8.60;;;6.60;;
38611;SDS011;24368;52.156;20.788;2023-07-24T18:43:33;9.50;;;6.30;;
38611;SDS011;24368;52.156;20.788;2023-07-24T18:48:35;6.30;;;5.70;;
38611;SDS011;24368;52.156;20.788;2023-07-24T18:53:37;7.50;;;5.50;;
38611;SDS011;24368;52.156;20.788;2023-07-24T18:58:39;7.60;;;5.60;;
38611;SDS011;24368;52.156;20.788;2023-07-24T19:03:44;5.00;;;4.50;;
38611;SDS011;24368;52.156;20.788;2023-07-24T19:08:47;5.50;;;4.50;;
38611;SDS011;24368;52.156;20.788;2023-07-24T19:13:49;6.50;;;4.70;;
38611;SDS011;24368;52.156;20.788;2023-07-24T19:18:51;6.80;;;4.50;;
38611;SDS011;24368;52.156;20.788;2023-07-24T19:23:53;4.40;;;4.00;;
38611;SDS011;24368;52.156;20.788;2023-07-24T19:28:54;4.80;;;4.30;;
38611;SDS011;24368;52.156;20.788;2023-07-24T19:33:57;4.90;;;4.10;;
38611;SDS011;24368;52.156;20.788;2023-07-24T19:38:58;5.70;;;4.80;;
38611;SDS011;24368;52.156;20.788;2023-07-24T19:44:00;5.10;;;4.60;;
38611;SDS011;24368;52.156;20.788;2023-07-24T19:49:02;5.10;;;4.40;;
38611;SDS011;24368;52.156;20.788;2023-07-24T19:54:04;4.90;;;4.20;;
38611;SDS011;24368;52.156;20.788;2023-07-24T19:59:06;4.40;;;4.00;;
38611;SDS011;24368;52.156;20.788;2023-07-24T20:04:08;5.00;;;3.80;;
38611;SDS011;24368;52.156;20.788;2023-07-24T20:09:10;5.10;;;4.00;;
38611;SDS011;24368;52.156;20.788;2023-07-24T20:14:12;5.50;;;3.90;;
38611;SDS011;24368;52.156;20.788;2023-07-24T20:19:14;3.90;;;3.60;;
38611;SDS011;24368;52.156;20.788;2023-07-24T20:24:16;5.30;;;4.40;;
38611;SDS011;24368;52.156;20.788;2023-07-24T20:29:18;5.50;;;4.50;;
38611;SDS011;24368;52.156;20.788;2023-07-24T20:34:20;5.40;;;4.90;;
38611;SDS011;24368;52.156;20.788;2023-07-24T20:39:22;6.20;;;5.60;;
38611;SDS011;24368;52.156;20.788;2023-07-24T20:44:24;6.10;;;5.10;;
38611;SDS011;24368;52.156;20.788;2023-07-24T20:49:26;6.60;;;5.90;;
38611;SDS011;24368;52.156;20.788;2023-07-24T20:54:28;5.70;;;4.50;;
38611;SDS011;24368;52.156;20.788;2023-07-24T20:59:30;5.60;;;5.10;;
38611;SDS011;24368;52.156;20.788;2023-07-24T21:04:31;6.10;;;5.20;;
38611;SDS011;24368;52.156;20.788;2023-07-24T21:09:33;5.70;;;5.10;;
38611;SDS011;24368;52.156;20.788;2023-07-24T21:14:35;4.90;;;4.40;;
38611;SDS011;24368;52.156;20.788;2023-07-24T21:19:37;5.00;;;4.50;;
38611;SDS011;24368;52.156;20.788;2023-07-24T21:24:39;4.90;;;4.40;;
38611;SDS011;24368;52.156;20.788;2023-07-24T21:29:40;6.40;;;5.20;;
38611;SDS011;24368;52.156;20.788;2023-07-24T21:34:42;5.30;;;4.80;;
38611;SDS011;24368;52.156;20.788;2023-07-24T21:39:44;5.60;;;4.90;;
38611;SDS011;24368;52.156;20.788;2023-07-24T21:44:46;6.10;;;5.50;;
38611;SDS011;24368;52.156;20.788;2023-07-24T21:49:48;6.60;;;6.00;;
38611;SDS011;24368;52.156;20.788;2023-07-24T21:54:49;6.20;;;5.60;;
38611;SDS011;24368;52.156;20.788;2023-07-24T21:59:51;5.50;;;5.00;;
38611;SDS011;24368;52.156;20.788;2023-07-24T22:04:53;6.40;;;5.40;;
38611;SDS011;24368;52.156;20.788;2023-07-24T22:09:55;7.80;;;5.80;;
38611;SDS011;24368;52.156;20.788;2023-07-24T22:14:57;6.90;;;6.20;;
38611;SDS011;24368;52.156;20.788;2023-07-24T22:19:59;7.00;;;6.00;;
38611;SDS011;24368;52.156;20.788;2023-07-24T22:25:08;6.40;;;5.30;;
38611;SDS011;24368;52.156;20.788;2023-07-24T22:30:10;5.90;;;5.40;;
38611;SDS011;24368;52.156;20.788;2023-07-24T22:35:13;6.30;;;5.70;;
38611;SDS011;24368;52.156;20.788;2023-07-24T22:40:15;6.00;;;5.50;;
38611;SDS011;24368;52.156;20.788;2023-07-24T22:45:17;7.10;;;6.30;;
38611;SDS011;24368;52.156;20.788;2023-07-24T22:50:18;6.80;;;6.10;;
38611;SDS011;24368;52.156;20.788;2023-07-24T22:55:20;6.80;;;6.00;;
38611;SDS011;24368;52.156;20.788;2023-07-24T23:00:22;8.40;;;5.80;;
38611;SDS011;24368;52.156;20.788;2023-07-24T23:05:24;6.90;;;6.20;;
38611;SDS011;24368;52.156;20.788;2023-07-24T23:10:26;7.20;;;6.50;;
38611;SDS011;24368;52.156;20.788;2023-07-24T23:15:27;7.20;;;5.80;;
38611;SDS011;24368;52.156;20.788;2023-07-24T23:20:29;6.20;;;5.60;;
38611;SDS011;24368;52.156;20.788;2023-07-24T23:25:31;7.10;;;5.90;;
38611;SDS011;24368;52.156;20.788;2023-07-24T23:30:39;7.30;;;6.00;;
38611;SDS011;24368;52.156;20.788;2023-07-24T23:35:42;6.70;;;6.00;;
38611;SDS011;24368;52.156;20.788;2023-07-24T23:40:44;6.10;;;5.50;;
38611;SDS011;24368;52.156;20.788;2023-07-24T23:45:46;6.50;;;5.80;;
38611;SDS011;24368;52.156;20.788;2023-07-24T23:50:48;6.40;;;5.90;;
38611;SDS011;24368;52.156;20.788;2023-07-24T23:55:49;7.50;;;6.40;;
